LAN1910 SCEL-SAME
Flight info
| Callsign | LAN1910 |
|---|---|
| Flight time | N/A |
| Altitude | 27000 |
| Route | NEBEG7C/17L NEBEG NEBEG1U |
| Aircraft | A20N/M-SDE2E3FGHIRWXY/LB1 |
Departure
| Time | N/A |
|---|---|
| Airport | Comodoro Arturo Merino Benítez International Airport (SCEL) |
Arrival
| Time | 2026-04-24 19:11 |
|---|---|
| Airport | Governor Francisco Gabrielli International Airport (SAME) |
| Time | Latitude | Longitude | Altitude | Speed | Heading |
|---|---|---|---|---|---|
| 2026-04-24 18:54 | -33.91526 | -68.92943 | 26795 ft | 503 kts | 54° |
| 2026-04-24 18:55 | -33.87673 | -68.87944 | 26236 ft | 481 kts | 29° |
| 2026-04-24 18:55 | -33.84746 | -68.86083 | 25246 ft | 473 kts | 13° |
| 2026-04-24 18:55 | -33.81561 | -68.85264 | 24218 ft | 466 kts | 358° |
| 2026-04-24 18:56 | -33.78322 | -68.85222 | 23215 ft | 466 kts | 354° |
| 2026-04-24 18:56 | -33.75082 | -68.85254 | 22293 ft | 465 kts | 355° |
| 2026-04-24 18:56 | -33.71845 | -68.85200 | 21466 ft | 463 kts | 356° |
| 2026-04-24 18:56 | -33.68641 | -68.85073 | 20690 ft | 460 kts | 357° |
| 2026-04-24 18:57 | -33.65461 | -68.84900 | 20084 ft | 452 kts | 358° |
| 2026-04-24 18:57 | -33.62366 | -68.84704 | 19819 ft | 437 kts | 358° |
| 2026-04-24 18:57 | -33.59395 | -68.84502 | 19782 ft | 418 kts | 358° |
| 2026-04-24 18:57 | -33.56532 | -68.84304 | 19786 ft | 410 kts | 358° |
| 2026-04-24 18:58 | -33.53670 | -68.84107 | 19790 ft | 411 kts | 358° |
| 2026-04-24 18:58 | -33.50828 | -68.83910 | 19790 ft | 411 kts | 358° |
| 2026-04-24 18:58 | -33.47960 | -68.83708 | 19760 ft | 410 kts | 358° |
| 2026-04-24 18:58 | -33.45122 | -68.83505 | 19192 ft | 408 kts | 358° |
| 2026-04-24 18:59 | -33.42273 | -68.83303 | 18070 ft | 414 kts | 358° |
| 2026-04-24 18:59 | -33.39372 | -68.83099 | 16577 ft | 420 kts | 359° |
| 2026-04-24 18:59 | -33.36423 | -68.82890 | 15218 ft | 423 kts | 1° |
| 2026-04-24 18:59 | -33.33483 | -68.82678 | 14087 ft | 419 kts | 1° |
| 2026-04-24 19:00 | -33.30601 | -68.82470 | 13009 ft | 413 kts | 2° |
| 2026-04-24 19:00 | -33.27774 | -68.82265 | 12256 ft | 399 kts | 2° |
| 2026-04-24 19:00 | -33.25077 | -68.82070 | 11988 ft | 374 kts | 2° |
| 2026-04-24 19:00 | -33.22551 | -68.81887 | 11960 ft | 363 kts | 2° |
| 2026-04-24 19:01 | -33.20020 | -68.81706 | 11956 ft | 368 kts | 2° |
| 2026-04-24 19:01 | -33.17452 | -68.81524 | 11957 ft | 369 kts | 2° |
| 2026-04-24 19:01 | -33.14909 | -68.81343 | 11955 ft | 369 kts | 2° |
| 2026-04-24 19:01 | -33.12315 | -68.81158 | 11950 ft | 370 kts | 2° |
| 2026-04-24 19:02 | -33.09745 | -68.80975 | 11954 ft | 370 kts | 2° |
| 2026-04-24 19:02 | -33.07199 | -68.80793 | 11959 ft | 370 kts | 2° |
| 2026-04-24 19:02 | -33.04599 | -68.80608 | 11970 ft | 370 kts | 2° |
| 2026-04-24 19:02 | -33.02028 | -68.80392 | 11981 ft | 370 kts | 5° |
| 2026-04-24 19:03 | -32.99532 | -68.79684 | 11979 ft | 372 kts | 20° |
| 2026-04-24 19:03 | -32.97251 | -68.78244 | 11986 ft | 373 kts | 31° |
| 2026-04-24 19:03 | -32.95070 | -68.76544 | 11990 ft | 374 kts | 33° |
| 2026-04-24 19:03 | -32.92910 | -68.74808 | 11993 ft | 374 kts | 33° |
| 2026-04-24 19:04 | -32.90771 | -68.73091 | 11594 ft | 366 kts | 33° |
| 2026-04-24 19:04 | -32.88653 | -68.71399 | 10515 ft | 368 kts | 33° |
| 2026-04-24 19:04 | -32.86508 | -68.69694 | 9207 ft | 375 kts | 33° |
| 2026-04-24 19:04 | -32.84341 | -68.67975 | 7795 ft | 381 kts | 33° |
| 2026-04-24 19:05 | -32.82121 | -68.66235 | 6597 ft | 381 kts | 31° |
| 2026-04-24 19:05 | -32.79764 | -68.64876 | 5687 ft | 371 kts | 19° |
| 2026-04-24 19:05 | -32.77309 | -68.64304 | 5187 ft | 351 kts | 4° |
| 2026-04-24 19:05 | -32.74957 | -68.64338 | 4997 ft | 323 kts | 357° |
| 2026-04-24 19:06 | -32.72822 | -68.64501 | 4969 ft | 294 kts | 356° |
| 2026-04-24 19:06 | -32.70873 | -68.64667 | 4964 ft | 269 kts | 356° |
| 2026-04-24 19:06 | -32.68970 | -68.64829 | 4990 ft | 283 kts | 356° |
| 2026-04-24 19:06 | -32.67024 | -68.65286 | 4975 ft | 289 kts | 340° |
| 2026-04-24 19:07 | -32.65336 | -68.66576 | 4975 ft | 293 kts | 314° |
| 2026-04-24 19:07 | -32.64272 | -68.68639 | 4968 ft | 292 kts | 288° |
| 2026-04-24 19:07 | -32.64047 | -68.70179 | 4963 ft | 281 kts | 271° |
| 2026-04-24 19:07 | -32.64652 | -68.73027 | 4970 ft | 258 kts | 241° |
| 2026-04-24 19:08 | -32.65563 | -68.74768 | 4986 ft | 238 kts | 236° |
| 2026-04-24 19:08 | -32.66461 | -68.76320 | 4984 ft | 228 kts | 235° |
| 2026-04-24 19:08 | -32.67524 | -68.77905 | 4966 ft | 253 kts | 223° |
| 2026-04-24 19:08 | -32.69114 | -68.79134 | 4991 ft | 284 kts | 199° |
| 2026-04-24 19:09 | -32.70990 | -68.79492 | 4984 ft | 265 kts | 180° |
| 2026-04-24 19:09 | -32.72768 | -68.79469 | 4872 ft | 248 kts | 177° |
| 2026-04-24 19:09 | -32.74452 | -68.79407 | 4594 ft | 234 kts | 176° |
| 2026-04-24 19:09 | -32.76020 | -68.79278 | 4168 ft | 221 kts | 174° |
| 2026-04-24 19:10 | -32.77611 | -68.79185 | 3510 ft | 225 kts | 180° |
| 2026-04-24 19:10 | -32.79161 | -68.79197 | 2862 ft | 225 kts | 181° |
| 2026-04-24 19:10 | -32.80628 | -68.79214 | 2781 ft | 198 kts | 180° |
| 2026-04-24 19:10 | -32.81936 | -68.79264 | 2513 ft | 179 kts | 180° |
| 2026-04-24 19:11 | -32.83143 | -68.79296 | 2333 ft | 164 kts | 179° |
| 2026-04-24 19:11 | -32.84092 | -68.79296 | 2328 ft | 89 kts | 183° |
| 2026-04-24 19:11 | -32.84425 | -68.79330 | 2330 ft | 26 kts | 186° |
| 2026-04-24 19:11 | -32.84525 | -68.79327 | 2329 ft | 2 kts | 106° |
| 2026-04-24 19:12 | -32.84519 | -68.79322 | 2330 ft | 6 kts | 33° |
| 2026-04-24 19:12 | -32.84477 | -68.79327 | 2330 ft | 6 kts | 349° |
| 2026-04-24 19:12 | -32.84437 | -68.79337 | 2330 ft | 7 kts | 346° |
| 2026-04-24 19:12 | -32.84264 | -68.79406 | 2328 ft | 34 kts | 339° |
| 2026-04-24 19:13 | -32.84116 | -68.79475 | 2325 ft | 34 kts | 339° |
| 2026-04-24 19:13 | -32.83830 | -68.79524 | 2323 ft | 30 kts | 0° |
| 2026-04-24 19:13 | -32.83618 | -68.79520 | 2323 ft | 30 kts | 1° |
| 2026-04-24 19:13 | -32.83405 | -68.79514 | 2321 ft | 31 kts | 1° |
| 2026-04-24 19:14 | -32.83192 | -68.79513 | 2321 ft | 31 kts | 1° |
| 2026-04-24 19:14 | -32.83010 | -68.79543 | 2319 ft | 25 kts | 322° |
| 2026-04-24 19:14 | -32.82932 | -68.79666 | 2315 ft | 10 kts | 258° |
| 2026-04-24 19:14 | -32.82904 | -68.79708 | 2323 ft | 7 kts | 341° |
| 2026-04-24 19:15 | -32.82849 | -68.79712 | 2316 ft | 9 kts | 6° |
| 2026-04-24 19:15 | -32.82807 | -68.79725 | 2318 ft | 1 kts | 300° |
| 2026-04-24 19:15 | -32.82800 | -68.79747 | 2314 ft | 3 kts | 286° |
| 2026-04-24 19:15 | -32.82802 | -68.79778 | 2314 ft | 0 kts | 267° |